Terminal Aerodrome Forecast
Issued by NWS

Home | Current Version | Previous Version | Text Only | Print | Product List | Glossary On
Versions: 1 2 3 4 5 6 7 8 9 10 11 12 13 14 15 16
052
FTAK31 PAJN 261121
TAFAPG
TAF
PAPG 261121Z 2612/2712 13005KT P6SM FEW060 BKN150
     FM261500 08008KT P6SM VCSH BKN060 OVC080
     FM262300 08007KT P6SM -RA OVC035
     FM270300 11004KT 6SM -RA BR OVC025
      AMD LTD TO CLD VIS AND WIND TIL 261500=

USA.gov is the U.S. government's official web portal to all federal, state and local government web resources and services.